createdAt,value
2023-01-11T00:00:40.240Z,5.35
2023-01-11T00:03:07.265Z,3.20
2023-01-11T00:05:43.910Z,7.90
2023-01-11T00:08:11.783Z,4.68
2023-01-11T00:10:38.643Z,10.10
2023-01-11T00:13:05.685Z,6.47
2023-01-11T00:15:32.676Z,5.15
2023-01-11T00:17:59.411Z,2.20
2023-01-11T00:20:26.205Z,5.25
2023-01-11T00:22:53.134Z,7.18
2023-01-11T00:25:19.863Z,5.57
2023-01-11T00:27:49.468Z,3.53
2023-01-11T00:30:17.371Z,5.07
2023-01-11T00:32:44.372Z,4.07
2023-01-11T00:35:11.012Z,6.95
2023-01-11T00:37:37.696Z,1.90
2023-01-11T00:40:04.920Z,3.55
2023-01-11T00:42:49.964Z,6.20
2023-01-11T00:45:35.332Z,3.72
2023-01-11T00:48:05.994Z,5.13
2023-01-11T00:50:37.903Z,3.70
2023-01-11T00:53:05.212Z,3.90
2023-01-11T00:55:32.337Z,3.63
2023-01-11T00:57:59.214Z,3.13
2023-01-11T01:00:26.454Z,2.10
2023-01-11T01:02:53.175Z,6.35
2023-01-11T01:05:20.502Z,3.95
2023-01-11T01:07:47.373Z,4.85
2023-01-11T01:10:16.136Z,3.72
2023-01-11T01:13:01.275Z,2.92
2023-01-11T01:15:28.274Z,3.88
2023-01-11T01:17:55.327Z,3.95
2023-01-11T01:20:23.395Z,3.83
2023-01-11T01:22:50.547Z,2.97
2023-01-11T01:25:17.738Z,4.28
2023-01-11T01:27:44.537Z,2.63
2023-01-11T01:30:11.777Z,3.97
2023-01-11T01:32:38.477Z,3.17
2023-01-11T01:35:05.387Z,3.53
2023-01-11T01:37:31.982Z,3.00
2023-01-11T01:39:58.592Z,2.50
2023-01-11T01:42:25.439Z,3.47
2023-01-11T01:44:54.633Z,3.63
2023-01-11T01:47:49.688Z,2.28
2023-01-11T01:50:37.603Z,1.20
2023-01-11T01:53:16.992Z,3.40
2023-01-11T01:55:48.911Z,1.17
2023-01-11T01:58:18.031Z,2.47
2023-01-11T02:00:46.083Z,1.92
2023-01-11T02:03:18.137Z,2.20
2023-01-11T02:05:45.626Z,4.03
2023-01-11T02:08:19.860Z,1.13
2023-01-11T02:10:46.805Z,3.97
2023-01-11T02:13:14.582Z,3.08
2023-01-11T02:15:41.450Z,2.08
2023-01-11T02:18:13.199Z,1.80
2023-01-11T02:21:06.319Z,3.45
2023-01-11T02:24:11.143Z,3.47
2023-01-11T02:27:10.160Z,4.40
2023-01-11T02:29:57.803Z,6.60
2023-01-11T02:32:34.149Z,5.53
2023-01-11T02:35:26.553Z,2.75
2023-01-11T02:38:17.992Z,2.00
2023-01-11T02:41:16.863Z,3.45
2023-01-11T02:44:13.107Z,6.00
2023-01-11T02:46:42.943Z,7.75
2023-01-11T02:49:15.876Z,5.78
2023-01-11T02:52:03.056Z,5.80
2023-01-11T02:54:31.724Z,5.45
2023-01-11T02:57:00.570Z,5.22
2023-01-11T02:59:33.079Z,2.88
2023-01-11T03:01:59.813Z,12.40
2023-01-11T03:04:35.874Z,5.80
2023-01-11T03:07:08.384Z,5.68
2023-01-11T03:09:47.574Z,2.33
2023-01-11T03:12:52.789Z,11.77
2023-01-11T03:15:43.872Z,6.63
2023-01-11T03:18:48.763Z,9.18
2023-01-11T03:21:50.318Z,8.98
2023-01-11T03:24:38.327Z,8.90
2023-01-11T03:27:20.430Z,11.30
2023-01-11T03:29:51.955Z,11.45
2023-01-11T03:32:35.774Z,7.47
2023-01-11T03:35:02.566Z,7.85
2023-01-11T03:37:45.805Z,12.15
2023-01-11T03:40:23.779Z,7.82
2023-01-11T03:43:11.635Z,14.07
2023-01-11T03:45:54.086Z,12.00
2023-01-11T03:48:34.622Z,10.82
2023-01-11T03:51:03.330Z,12.70
2023-01-11T03:53:32.923Z,10.00
2023-01-11T03:56:00.650Z,15.10
2023-01-11T03:58:27.929Z,14.65
2023-01-11T04:00:56.400Z,16.75
2023-01-11T04:03:24.876Z,5.72
2023-01-11T04:05:58.113Z,8.50
2023-01-11T04:08:24.881Z,16.73
2023-01-11T04:10:51.784Z,13.02
2023-01-11T04:13:18.436Z,17.40
2023-01-11T04:15:45.186Z,12.70
2023-01-11T04:18:11.838Z,15.23
2023-01-11T04:20:40.415Z,19.33
2023-01-11T04:23:09.661Z,9.38
2023-01-11T04:25:36.626Z,10.82
2023-01-11T04:28:04.085Z,14.70
2023-01-11T04:30:30.748Z,10.07
2023-01-11T04:32:59.275Z,10.05
2023-01-11T04:35:26.595Z,19.40
2023-01-11T04:37:57.260Z,13.80
2023-01-11T04:40:25.319Z,16.30
2023-01-11T04:42:51.999Z,10.68
2023-01-11T04:45:18.709Z,9.23
2023-01-11T04:47:45.365Z,10.40
2023-01-11T04:50:12.220Z,11.13
2023-01-11T04:52:41.587Z,13.38
2023-01-11T04:55:09.270Z,14.95
2023-01-11T04:57:35.976Z,11.93
2023-01-11T05:00:02.713Z,14.23
2023-01-11T05:02:29.315Z,15.82
2023-01-11T05:04:55.989Z,8.98
2023-01-11T05:07:22.594Z,12.27
2023-01-11T05:09:49.206Z,15.95
2023-01-11T05:12:15.763Z,10.88
2023-01-11T05:14:42.400Z,7.80
2023-01-11T05:17:13.749Z,11.52
2023-01-11T05:19:40.484Z,12.20
2023-01-11T05:22:07.792Z,11.50
2023-01-11T05:24:34.480Z,12.85
2023-01-11T05:27:01.278Z,15.30
2023-01-11T05:29:28.654Z,14.75
2023-01-11T05:31:55.882Z,8.52
2023-01-11T05:34:22.661Z,13.73
2023-01-11T05:36:49.340Z,9.68
2023-01-11T05:39:16.011Z,9.57
2023-01-11T05:41:42.961Z,9.80
2023-01-11T05:44:32.273Z,7.05
2023-01-11T05:46:59.538Z,8.82
2023-01-11T05:49:26.337Z,9.45
2023-01-11T05:51:52.948Z,15.82
2023-01-11T05:54:19.649Z,5.88
2023-01-11T05:56:46.310Z,13.32
2023-01-11T05:59:12.973Z,14.73
2023-01-11T06:01:39.793Z,8.15
2023-01-11T06:04:08.471Z,14.57
2023-01-11T06:06:35.339Z,5.70
2023-01-11T06:09:01.971Z,7.70
2023-01-11T06:11:28.792Z,6.57
2023-01-11T06:13:55.533Z,8.45
2023-01-11T06:16:23.619Z,13.63
2023-01-11T06:18:52.308Z,5.40
2023-01-11T06:21:20.193Z,12.52
2023-01-11T06:23:50.685Z,3.97
2023-01-11T06:26:20.548Z,7.53
2023-01-11T06:28:47.722Z,4.60
2023-01-11T06:31:17.078Z,8.82
2023-01-11T06:33:44.772Z,6.93
2023-01-11T06:36:12.507Z,5.03
2023-01-11T06:38:39.577Z,10.52
2023-01-11T06:41:10.808Z,21.15
2023-01-11T06:43:41.058Z,14.15
2023-01-11T06:46:14.004Z,17.63
2023-01-11T06:48:40.898Z,8.65
2023-01-11T06:51:07.674Z,7.95
2023-01-11T06:53:34.505Z,11.40
2023-01-11T06:56:01.247Z,7.72
2023-01-11T06:58:28.351Z,9.75
2023-01-11T07:00:57.401Z,7.82
2023-01-11T07:03:26.011Z,14.25
2023-01-11T07:05:54.227Z,12.32
2023-01-11T07:08:20.980Z,9.18
2023-01-11T07:10:47.768Z,12.07
2023-01-11T07:13:18.474Z,9.07
2023-01-11T07:15:48.468Z,8.95
2023-01-11T07:18:15.177Z,9.27
2023-01-11T07:20:42.074Z,12.55
2023-01-11T07:23:09.696Z,11.93
2023-01-11T07:25:36.691Z,6.25
2023-01-11T07:28:06.885Z,8.18
2023-01-11T07:30:47.887Z,6.18
2023-01-11T07:33:22.035Z,8.73
2023-01-11T07:35:49.600Z,10.35
2023-01-11T07:38:16.321Z,9.50
2023-01-11T07:40:43.131Z,11.70
2023-01-11T07:43:14.607Z,10.55
2023-01-11T07:45:49.728Z,13.57
2023-01-11T07:48:25.247Z,4.88
2023-01-11T07:50:52.940Z,12.85
2023-01-11T07:53:19.769Z,7.18
2023-01-11T07:55:47.339Z,16.63
2023-01-11T07:58:15.502Z,5.20
2023-01-11T08:00:42.267Z,8.15
2023-01-11T08:03:09.246Z,5.50
2023-01-11T08:05:36.117Z,11.23
2023-01-11T08:08:03.075Z,8.95
2023-01-11T08:10:29.910Z,10.73
2023-01-11T08:13:15.198Z,14.70
2023-01-11T08:18:11.837Z,11.48
2023-01-11T08:20:39.660Z,9.57
2023-01-11T08:23:07.972Z,3.65
2023-01-11T08:25:34.744Z,19.67
2023-01-11T08:28:03.194Z,12.07
2023-01-11T08:30:30.304Z,12.45
2023-01-11T08:32:57.675Z,10.10
2023-01-11T08:35:25.817Z,10.60
2023-01-11T08:37:52.633Z,12.32
2023-01-11T08:40:20.118Z,15.43
2023-01-11T08:42:47.647Z,6.43
2023-01-11T08:45:14.464Z,11.77
2023-01-11T08:47:41.163Z,12.93
2023-01-11T08:50:09.683Z,5.07
2023-01-11T08:52:36.399Z,9.38
2023-01-11T08:55:03.326Z,10.93
2023-01-11T08:57:29.972Z,7.38
2023-01-11T08:59:56.610Z,8.63
2023-01-11T09:02:23.292Z,2.60
2023-01-11T09:04:49.899Z,11.27
2023-01-11T09:07:16.573Z,4.40
2023-01-11T09:09:43.200Z,5.20
2023-01-11T09:12:09.790Z,11.88
2023-01-11T09:14:36.498Z,5.97
2023-01-11T09:17:03.129Z,7.38
2023-01-11T09:19:29.854Z,14.18
2023-01-11T09:21:57.982Z,8.38
2023-01-11T09:24:24.680Z,10.85
2023-01-11T09:26:51.488Z,9.35
2023-01-11T09:29:19.256Z,9.45
2023-01-11T09:31:46.333Z,9.23
2023-01-11T09:34:13.321Z,15.65
2023-01-11T09:36:40.360Z,12.07
2023-01-11T09:39:14.561Z,9.80
2023-01-11T09:42:01.244Z,5.90
2023-01-11T09:44:29.805Z,11.63
2023-01-11T09:47:51.921Z,9.57
2023-01-11T09:50:26.614Z,11.10
2023-01-11T09:53:28.202Z,10.93
2023-01-11T09:55:58.517Z,13.32
2023-01-11T09:58:34.797Z,14.20
2023-01-11T10:01:43.667Z,9.70
2023-01-11T10:04:41.793Z,14.23
2023-01-11T10:07:20.939Z,8.77
2023-01-11T10:18:39.409Z,6.65
2023-01-11T10:19:39.559Z,7.85
2023-01-11T10:22:32.798Z,8.63
2023-01-11T10:25:11.785Z,10.90
2023-01-11T10:27:55.563Z,13.73
2023-01-11T10:30:32.417Z,10.25
2023-01-11T10:33:36.313Z,11.00
2023-01-11T10:39:32.972Z,8.43
2023-01-11T10:42:12.153Z,10.82
2023-01-11T10:44:52.297Z,9.55
2023-01-11T10:47:23.789Z,14.05
2023-01-11T10:50:22.115Z,12.32
2023-01-11T10:53:18.680Z,15.38
2023-01-11T10:55:58.276Z,16.33
2023-01-11T10:58:51.005Z,13.65
2023-01-11T11:01:38.832Z,20.50
2023-01-11T11:04:45.031Z,10.23
2023-01-11T11:07:19.989Z,17.88
2023-01-11T11:10:11.484Z,8.32
2023-01-11T11:13:08.627Z,8.85
2023-01-11T11:15:48.015Z,11.02
2023-01-11T11:18:14.650Z,11.70
2023-01-11T11:20:44.035Z,11.90
2023-01-11T11:23:16.859Z,16.40
2023-01-11T11:25:50.261Z,19.88
2023-01-11T11:28:23.104Z,14.13
2023-01-11T11:30:53.497Z,8.15
2023-01-11T11:33:24.822Z,15.68
2023-01-11T11:36:01.330Z,8.63
2023-01-11T11:38:30.224Z,17.05
2023-01-11T11:41:10.277Z,10.52
2023-01-11T11:43:38.964Z,5.30
2023-01-11T11:46:19.907Z,8.82
2023-01-11T11:49:13.253Z,8.80
2023-01-11T11:51:41.762Z,7.20
2023-01-11T11:54:18.293Z,5.28
2023-01-11T11:56:44.969Z,20.33
2023-01-11T11:59:17.919Z,7.88
2023-01-11T12:01:48.593Z,15.02
2023-01-11T12:04:18.716Z,8.65
2023-01-11T12:07:05.980Z,11.80
2023-01-11T12:09:34.013Z,12.25
2023-01-11T12:12:01.090Z,12.15
2023-01-11T12:14:29.992Z,10.38
2023-01-11T12:16:59.792Z,14.90
2023-01-11T12:19:29.125Z,9.95
2023-01-11T12:22:19.962Z,7.90
2023-01-11T12:24:48.079Z,7.82
2023-01-11T12:27:40.694Z,8.98
2023-01-11T12:30:25.547Z,11.82
2023-01-11T12:33:20.379Z,7.32
2023-01-11T12:36:11.077Z,11.57
2023-01-11T12:38:55.885Z,11.35
2023-01-11T12:41:57.619Z,25.42
2023-01-11T12:44:34.483Z,10.52
2023-01-11T12:47:39.375Z,15.27
2023-01-11T12:50:25.178Z,12.07
2023-01-11T12:53:16.437Z,11.00
2023-01-11T12:58:33.375Z,9.57
2023-01-11T13:01:26.251Z,12.10
2023-01-11T13:04:12.333Z,9.30
2023-01-11T13:06:53.825Z,10.07
2023-01-11T13:09:58.611Z,11.15
2023-01-11T13:12:45.990Z,5.35
2023-01-11T13:15:12.582Z,5.97
2023-01-11T13:17:47.680Z,5.82
2023-01-11T13:20:29.381Z,4.30
2023-01-11T13:23:04.593Z,11.00
2023-01-11T13:25:35.328Z,10.23
2023-01-11T13:28:11.053Z,7.05
2023-01-11T13:30:42.836Z,9.75
2023-01-11T13:33:18.572Z,8.52
2023-01-11T13:35:54.426Z,7.25
2023-01-11T13:38:45.277Z,11.15
2023-01-11T13:41:17.893Z,9.93
2023-01-11T13:44:07.098Z,9.05
2023-01-11T13:46:42.865Z,13.07
2023-01-11T13:49:45.537Z,7.38
2023-01-11T13:52:19.931Z,12.38
2023-01-11T13:55:02.273Z,7.88
2023-01-11T13:57:50.661Z,12.68
2023-01-11T14:00:31.667Z,11.52
2023-01-11T14:03:13.810Z,15.63
2023-01-11T14:05:51.083Z,10.70
2023-01-11T14:08:40.889Z,10.52
2023-01-11T14:11:27.018Z,9.23
2023-01-11T14:14:15.808Z,10.10
2023-01-11T14:17:00.364Z,5.43
2023-01-11T14:19:48.508Z,15.38
2023-01-11T14:22:31.518Z,14.75
2023-01-11T14:24:58.114Z,9.85
2023-01-11T14:27:54.085Z,8.95
2023-01-11T14:31:09.368Z,7.85
2023-01-11T14:33:41.842Z,9.73
2023-01-11T14:36:33.147Z,12.13
2023-01-11T14:39:14.167Z,16.50
2023-01-11T14:42:02.223Z,13.88
2023-01-11T14:44:57.718Z,14.77
2023-01-11T14:47:28.852Z,12.90
2023-01-11T14:50:04.995Z,12.25
2023-01-11T14:52:40.162Z,13.48
2023-01-11T14:55:20.651Z,11.50
2023-01-11T14:57:56.045Z,6.70
2023-01-11T15:00:22.664Z,8.55
2023-01-11T15:03:01.549Z,10.55
2023-01-11T15:05:31.245Z,9.05
2023-01-11T15:08:15.882Z,7.07
2023-01-11T15:10:58.367Z,8.40
2023-01-11T15:13:33.894Z,6.22
2023-01-11T15:16:36.764Z,5.60
2023-01-11T15:19:10.152Z,8.32
2023-01-11T15:21:42.120Z,10.50
2023-01-11T15:24:31.940Z,7.38
2023-01-11T15:27:01.228Z,3.78
2023-01-11T15:29:32.371Z,6.20
2023-01-11T15:32:01.819Z,6.80
2023-01-11T15:34:40.665Z,9.82
2023-01-11T15:37:28.564Z,6.07
2023-01-11T15:40:01.394Z,7.15
2023-01-11T15:43:05.663Z,10.80
2023-01-11T15:46:06.244Z,7.25
2023-01-11T15:48:38.902Z,11.38
2023-01-11T15:51:25.777Z,11.30
2023-01-11T15:53:58.507Z,6.30
2023-01-11T15:57:03.399Z,5.22
2023-01-11T16:00:03.594Z,12.57
2023-01-11T16:02:42.878Z,10.00
2023-01-11T16:05:19.697Z,8.95
2023-01-11T16:08:00.481Z,6.68
2023-01-11T16:10:53.107Z,9.98
2023-01-11T16:14:00.227Z,11.45
2023-01-11T16:16:31.780Z,7.90
2023-01-11T16:19:20.089Z,14.63
2023-01-11T16:21:50.547Z,11.75
2023-01-11T16:24:23.803Z,14.68
2023-01-11T16:26:55.734Z,15.48
2023-01-11T16:29:30.087Z,13.75
2023-01-11T16:32:18.182Z,13.27
2023-01-11T16:34:47.175Z,11.75
2023-01-11T16:37:25.694Z,13.02
2023-01-11T16:39:57.255Z,12.93
2023-01-11T16:42:25.728Z,16.30
2023-01-11T16:45:01.332Z,8.93
2023-01-11T16:47:28.048Z,13.27
2023-01-11T16:50:21.501Z,13.10
2023-01-11T16:53:15.593Z,13.77
2023-01-11T16:55:51.505Z,12.02
2023-01-11T16:58:29.475Z,13.55
2023-01-11T17:01:05.064Z,7.45
2023-01-11T17:03:42.628Z,11.13
2023-01-11T17:06:15.368Z,10.27
2023-01-11T17:08:47.489Z,5.95
2023-01-11T17:11:28.952Z,11.23
2023-01-11T17:14:26.312Z,9.07
2023-01-11T17:16:59.239Z,15.27
2023-01-11T17:19:34.749Z,5.95
2023-01-11T17:22:07.920Z,15.75
2023-01-11T17:24:42.558Z,13.73
2023-01-11T17:27:19.261Z,12.88
2023-01-11T17:29:47.494Z,9.93
2023-01-11T17:32:23.415Z,10.90
2023-01-11T17:34:51.224Z,13.60
2023-01-11T17:37:18.747Z,16.80
2023-01-11T17:39:51.939Z,11.82
2023-01-11T17:42:37.802Z,8.00
2023-01-11T17:45:19.422Z,17.50
2023-01-11T17:47:51.008Z,18.73
2023-01-11T17:50:30.204Z,18.30
2023-01-11T17:53:05.925Z,12.57
2023-01-11T17:55:33.379Z,10.38
2023-01-11T17:58:20.108Z,15.38
2023-01-11T18:01:05.346Z,15.50
2023-01-11T18:03:39.919Z,13.40
2023-01-11T18:06:12.458Z,15.25
2023-01-11T18:08:39.280Z,14.70
2023-01-11T18:11:06.132Z,6.72
2023-01-11T18:13:35.007Z,13.05
2023-01-11T18:16:02.829Z,15.88
2023-01-11T18:18:41.548Z,18.42
2023-01-11T18:21:26.503Z,13.20
2023-01-11T18:26:36.610Z,17.65
2023-01-11T18:29:04.304Z,19.10
2023-01-11T18:31:31.607Z,16.13
2023-01-11T18:33:58.967Z,13.68
2023-01-11T18:36:27.537Z,19.70
2023-01-11T18:38:54.166Z,14.57
2023-01-11T18:41:39.268Z,19.85
2023-01-11T18:44:06.505Z,17.75
2023-01-11T18:46:33.103Z,13.90
2023-01-11T18:48:59.818Z,16.20
2023-01-11T18:51:34.087Z,12.18
2023-01-11T18:54:00.653Z,6.75
2023-01-11T18:56:27.207Z,16.17
2023-01-11T18:58:53.887Z,16.40
2023-01-11T19:01:20.542Z,14.73
2023-01-11T19:03:47.335Z,14.60
2023-01-11T19:06:14.086Z,20.00
2023-01-11T19:08:40.870Z,12.85
2023-01-11T19:11:07.567Z,16.00
2023-01-11T19:13:34.269Z,19.00
2023-01-11T19:16:01.772Z,17.00
2023-01-11T19:18:29.329Z,13.45
2023-01-11T19:21:01.880Z,20.45
2023-01-11T19:23:28.944Z,16.58
2023-01-11T19:26:01.360Z,11.30
2023-01-11T19:30:55.203Z,18.98
2023-01-11T19:33:22.024Z,12.90
2023-01-11T19:35:49.509Z,8.93
2023-01-11T19:38:20.098Z,12.25
2023-01-11T19:40:50.241Z,5.68
2023-01-11T19:43:17.378Z,10.20
2023-01-11T19:45:44.042Z,12.25
2023-01-11T19:48:11.005Z,9.20
2023-01-11T19:50:37.653Z,12.65
2023-01-11T19:53:04.246Z,9.90
2023-01-11T19:55:30.932Z,14.90
2023-01-11T19:57:57.676Z,7.50
2023-01-11T20:00:24.263Z,7.35
2023-01-11T20:02:51.027Z,6.65
2023-01-11T20:05:17.790Z,12.07
2023-01-11T20:07:44.388Z,5.78
2023-01-11T20:10:11.769Z,5.20
2023-01-11T20:12:38.438Z,10.65
2023-01-11T20:15:05.488Z,4.78
2023-01-11T20:17:33.448Z,3.80
2023-01-11T20:20:00.019Z,5.50
2023-01-11T20:22:26.794Z,3.75
2023-01-11T20:24:53.368Z,2.63
2023-01-11T20:27:20.255Z,8.68
2023-01-11T20:29:47.831Z,6.05
2023-01-11T20:32:39.174Z,8.23
2023-01-11T20:35:03.018Z,10.07
2023-01-11T20:37:29.696Z,7.13
2023-01-11T20:39:56.290Z,4.93
2023-01-11T20:42:22.953Z,5.72
2023-01-11T20:44:49.570Z,9.25
2023-01-11T20:47:16.214Z,9.88
2023-01-11T20:49:42.872Z,5.70
2023-01-11T20:52:09.597Z,3.67
2023-01-11T20:54:37.543Z,8.98
2023-01-11T20:57:08.213Z,7.22
2023-01-11T20:59:34.931Z,8.80
2023-01-11T21:02:01.648Z,3.95
2023-01-11T21:04:28.324Z,11.20
2023-01-11T21:06:54.899Z,14.68
2023-01-11T21:09:21.503Z,9.32
2023-01-11T21:11:54.145Z,4.70
2023-01-11T21:14:22.152Z,4.13
2023-01-11T21:16:49.228Z,8.95
2023-01-11T21:19:16.504Z,6.97
2023-01-11T21:21:43.999Z,5.13
2023-01-11T21:24:13.158Z,10.15
2023-01-11T21:26:41.989Z,11.20
2023-01-11T21:29:10.502Z,4.72
2023-01-11T21:31:38.258Z,7.13
2023-01-11T21:34:05.539Z,8.90
2023-01-11T21:36:32.481Z,7.72
2023-01-11T21:39:00.347Z,10.50
2023-01-11T21:41:47.981Z,5.85
2023-01-11T21:44:15.872Z,12.60
2023-01-11T21:46:43.584Z,6.18
2023-01-11T21:49:11.381Z,11.68
2023-01-11T21:51:38.711Z,4.53
2023-01-11T21:54:12.472Z,7.43
2023-01-11T21:56:39.552Z,6.50
2023-01-11T21:59:06.184Z,8.77
2023-01-11T22:01:32.967Z,6.70
2023-01-11T22:03:59.792Z,12.15
2023-01-11T22:06:26.469Z,12.10
2023-01-11T22:08:53.172Z,14.23
2023-01-11T22:11:19.830Z,10.85
2023-01-11T22:13:46.528Z,13.73
2023-01-11T22:16:17.897Z,15.38
2023-01-11T22:18:45.727Z,14.05
2023-01-11T22:21:19.118Z,14.27
2023-01-11T22:23:47.135Z,8.93
2023-01-11T22:26:16.334Z,18.52
2023-01-11T22:29:02.071Z,9.07
2023-01-11T22:31:29.521Z,28.50
2023-01-11T22:33:56.652Z,21.02
2023-01-11T22:36:24.379Z,12.05
2023-01-11T22:38:51.514Z,18.00
2023-01-11T22:41:18.667Z,18.73
2023-01-11T22:43:45.922Z,22.35
2023-01-11T22:46:15.694Z,26.05
2023-01-11T22:48:42.493Z,23.90
2023-01-11T22:51:10.474Z,15.32
2023-01-11T22:53:41.534Z,13.20
2023-01-11T22:56:09.846Z,22.08
2023-01-11T22:58:37.091Z,17.85
2023-01-11T23:01:15.479Z,20.65
2023-01-11T23:03:43.160Z,22.60
2023-01-11T23:06:10.224Z,20.05
2023-01-11T23:08:42.147Z,28.50
2023-01-11T23:11:10.332Z,29.95
2023-01-11T23:13:52.348Z,27.42
2023-01-11T23:16:19.664Z,26.23
2023-01-11T23:18:46.383Z,18.85
2023-01-11T23:21:13.119Z,27.05
2023-01-11T23:23:39.775Z,19.48
2023-01-11T23:26:07.362Z,31.83
2023-01-11T23:28:34.952Z,25.15
2023-01-11T23:31:11.780Z,17.52
2023-01-11T23:33:38.480Z,31.20
2023-01-11T23:36:05.565Z,23.50
2023-01-11T23:38:32.923Z,16.13
2023-01-11T23:41:29.717Z,15.48
2023-01-11T23:43:56.730Z,12.20
2023-01-11T23:46:42.405Z,11.10
2023-01-11T23:49:10.256Z,7.18
2023-01-11T23:51:37.765Z,15.68
2023-01-11T23:54:05.655Z,25.45
2023-01-11T23:56:33.042Z,20.90
2023-01-11T23:59:00.286Z,27.10
